createdAt,value
2019-01-14T00:01:50.604Z,97721.89
2019-01-14T00:04:20.672Z,97725.14
2019-01-14T00:06:51.076Z,97720.62
2019-01-14T00:09:43.130Z,97722.63
2019-01-14T00:12:12.482Z,97729.70
2019-01-14T00:14:42.934Z,97715.95
2019-01-14T00:17:12.207Z,97732.87
2019-01-14T00:19:41.727Z,97718.30
2019-01-14T00:22:10.963Z,97711.73
2019-01-14T00:24:40.221Z,97711.88
2019-01-14T00:27:11.441Z,97714.76
2019-01-14T00:29:41.872Z,97711.62
2019-01-14T00:32:12.468Z,97722.59
2019-01-14T00:34:42.437Z,97717.31
2019-01-14T00:37:13.363Z,97724.29
2019-01-14T00:39:43.847Z,97732.94
2019-01-14T00:42:13.414Z,97728.05
2019-01-14T00:44:43.496Z,97726.12
2019-01-14T00:47:13.278Z,97737.69
2019-01-14T00:49:43.660Z,97730.23
2019-01-14T00:52:15.213Z,97735.79
2019-01-14T00:54:44.524Z,97760.97
2019-01-14T00:57:15.719Z,97748.57
2019-01-14T00:59:45.435Z,97750.06
2019-01-14T01:02:15.544Z,97753.64
2019-01-14T01:04:47.067Z,97763.39
2019-01-14T01:07:16.380Z,97772.95
2019-01-14T01:09:45.931Z,97789.40
2019-01-14T01:12:16.004Z,97781.22
2019-01-14T01:14:45.263Z,97796.44
2019-01-14T01:17:15.879Z,97787.75
2019-01-14T01:19:45.379Z,97795.81
2019-01-14T01:22:14.704Z,97802.53
2019-01-14T01:24:44.184Z,97793.73
2019-01-14T01:27:13.646Z,97798.48
2019-01-14T01:29:43.138Z,97799.80
2019-01-14T01:32:13.994Z,97805.42
2019-01-14T01:34:44.062Z,97799.76
2019-01-14T01:37:13.450Z,97805.30
2019-01-14T01:39:42.679Z,97813.50
2019-01-14T01:42:11.922Z,97819.41
2019-01-14T01:44:41.460Z,97826.18
2019-01-14T01:47:10.724Z,97829.04
2019-01-14T01:49:41.074Z,97842.20
2019-01-14T01:52:12.118Z,97844.46
2019-01-14T01:54:42.151Z,97845.67
2019-01-14T01:57:12.229Z,97844.20
2019-01-14T01:59:46.289Z,97853.13
2019-01-14T02:02:17.280Z,97867.47
2019-01-14T02:04:46.508Z,97871.31
2019-01-14T02:07:16.177Z,97871.42
2019-01-14T02:09:47.496Z,97870.02
2019-01-14T02:12:16.793Z,97878.30
2019-01-14T02:14:46.414Z,97874.91
2019-01-14T02:17:16.059Z,97881.41
2019-01-14T02:19:50.218Z,97874.58
2019-01-14T02:22:19.746Z,97896.22
2019-01-14T02:24:49.523Z,97876.64
2019-01-14T02:27:19.061Z,97871.12
2019-01-14T02:29:51.137Z,97873.54
2019-01-14T02:32:20.396Z,97873.38
2019-01-14T02:34:50.012Z,97874.80
2019-01-14T02:37:19.582Z,97885.20
2019-01-14T02:39:49.993Z,97883.51
2019-01-14T02:42:19.278Z,97882.47
2019-01-14T02:44:49.059Z,97891.48
2019-01-14T02:47:19.048Z,97890.81
2019-01-14T02:49:48.639Z,97904.20
2019-01-14T02:52:18.181Z,97917.16
2019-01-14T02:54:55.087Z,97918.17
2019-01-14T02:57:25.231Z,97927.09
2019-01-14T02:59:56.069Z,97939.44
2019-01-14T03:02:26.280Z,97933.92
2019-01-14T03:04:57.580Z,97929.72
2019-01-14T03:07:28.978Z,97938.91
2019-01-14T03:09:58.834Z,97945.09
2019-01-14T03:12:28.900Z,97963.73
2019-01-14T03:14:59.746Z,97961.04
2019-01-14T03:17:29.600Z,97965.24
2019-01-14T03:19:59.358Z,97973.02
2019-01-14T03:22:30.618Z,97983.89
2019-01-14T03:25:01.044Z,97981.94
2019-01-14T03:27:31.583Z,97985.50
2019-01-14T03:30:01.702Z,97984.83
2019-01-14T03:32:41.564Z,97985.02
2019-01-14T03:35:10.943Z,97991.31
2019-01-14T03:37:42.934Z,97992.05
2019-01-14T03:40:15.830Z,97993.94
2019-01-14T03:42:46.668Z,98001.44
2019-01-14T03:45:20.314Z,98014.80
2019-01-14T03:47:52.382Z,98015.11
2019-01-14T03:50:24.163Z,98012.95
2019-01-14T03:52:55.720Z,98016.88
2019-01-14T03:55:25.254Z,98013.86
2019-01-14T03:57:54.780Z,98025.51
2019-01-14T04:00:24.338Z,98023.61
2019-01-14T04:02:57.456Z,98025.49
2019-01-14T04:05:26.694Z,98037.11
2019-01-14T04:07:55.955Z,98031.56
2019-01-14T04:10:25.517Z,98040.84
2019-01-14T04:12:55.852Z,98045.24
2019-01-14T04:15:25.369Z,98035.97
2019-01-14T04:17:55.313Z,98042.81
2019-01-14T04:20:27.068Z,98050.48
2019-01-14T04:22:58.548Z,98049.55
2019-01-14T04:25:29.344Z,98054.23
2019-01-14T04:27:59.105Z,98064.05
2019-01-14T04:30:29.380Z,98062.92
2019-01-14T04:33:00.531Z,98064.73
2019-01-14T04:35:32.090Z,98073.34
2019-01-14T04:38:01.317Z,98076.81
2019-01-14T04:40:30.945Z,98080.09
2019-01-14T04:43:03.782Z,98079.94
2019-01-14T04:45:35.331Z,98068.59
2019-01-14T04:48:05.863Z,98071.16
2019-01-14T04:50:36.785Z,98085.80
2019-01-14T04:53:06.875Z,98086.38
2019-01-14T04:55:36.746Z,98083.19
2019-01-14T04:58:07.369Z,98093.83
2019-01-14T05:00:38.720Z,98100.45
2019-01-14T05:03:07.978Z,98099.99
2019-01-14T05:05:37.265Z,98105.89
2019-01-14T05:08:08.093Z,98109.91
2019-01-14T05:10:37.891Z,98121.91
2019-01-14T05:13:08.894Z,98129.77
2019-01-14T05:15:44.835Z,98133.79
2019-01-14T05:18:14.961Z,98133.79
2019-01-14T05:20:46.442Z,98135.25
2019-01-14T05:23:21.076Z,98139.13
2019-01-14T05:25:51.889Z,98133.32
2019-01-14T05:28:23.015Z,98133.27
2019-01-14T05:30:54.169Z,98129.58
2019-01-14T05:33:23.415Z,98141.41
2019-01-14T05:35:52.669Z,98141.98
2019-01-14T05:38:22.201Z,98142.72
2019-01-14T05:40:51.445Z,98143.38
2019-01-14T05:43:21.259Z,98144.14
2019-01-14T05:45:54.654Z,98146.56
2019-01-14T05:48:24.183Z,98157.14
2019-01-14T05:50:53.666Z,98162.95
2019-01-14T05:53:27.508Z,98161.93
2019-01-14T05:55:57.443Z,98165.40
2019-01-14T05:58:27.950Z,98170.41
2019-01-14T06:00:57.977Z,98173.78
2019-01-14T06:03:27.608Z,98176.95
2019-01-14T06:05:57.579Z,98173.91
2019-01-14T06:08:29.589Z,98180.72
2019-01-14T06:10:59.141Z,98186.43
2019-01-14T06:13:33.852Z,98188.11
2019-01-14T06:16:03.893Z,98186.98
2019-01-14T06:18:34.755Z,98197.39
2019-01-14T06:21:04.013Z,98192.52
2019-01-14T06:23:33.275Z,98197.53
2019-01-14T06:26:03.429Z,98198.78
2019-01-14T06:28:34.061Z,98203.25
2019-01-14T06:31:04.118Z,98209.93
2019-01-14T06:33:33.761Z,98215.49
2019-01-14T06:36:03.732Z,98216.95
2019-01-14T06:38:32.980Z,98219.80
2019-01-14T06:41:02.520Z,98228.60
2019-01-14T06:43:33.960Z,98239.14
2019-01-14T06:46:04.882Z,98236.70
2019-01-14T06:48:34.968Z,98244.95
2019-01-14T06:51:04.337Z,98249.81
2019-01-14T06:53:35.704Z,98251.50
2019-01-14T06:56:06.232Z,98269.63
2019-01-14T06:58:36.573Z,98275.24
2019-01-14T07:01:08.303Z,98281.09
2019-01-14T07:03:40.109Z,98290.34
2019-01-14T07:06:12.676Z,98289.88
2019-01-14T07:08:42.734Z,98303.63
2019-01-14T07:11:12.830Z,98304.67
2019-01-14T07:13:42.927Z,98301.17
2019-01-14T07:16:13.604Z,98307.55
2019-01-14T07:18:45.239Z,98295.02
2019-01-14T07:21:14.704Z,98293.42
2019-01-14T07:23:49.356Z,98296.71
2019-01-14T07:26:21.932Z,98298.58
2019-01-14T07:28:52.273Z,98303.96
2019-01-14T07:31:24.944Z,98308.61
2019-01-14T07:33:54.577Z,98313.59
2019-01-14T07:36:25.642Z,98315.25
2019-01-14T07:38:54.891Z,98327.98
2019-01-14T07:41:24.465Z,98338.98
2019-01-14T07:43:57.141Z,98349.54
2019-01-14T07:46:27.382Z,98344.59
2019-01-14T07:48:57.247Z,98358.08
2019-01-14T07:51:26.537Z,98364.25
2019-01-14T07:53:58.055Z,98361.25
2019-01-14T07:56:51.158Z,98361.50
2019-01-14T07:59:22.608Z,98363.27
2019-01-14T08:01:51.881Z,98365.72
2019-01-14T08:04:22.203Z,98368.80
2019-01-14T08:06:52.636Z,98376.11
2019-01-14T08:09:24.444Z,98382.45
2019-01-14T08:11:53.669Z,98392.48
2019-01-14T08:14:28.097Z,98401.58
2019-01-14T08:16:58.671Z,98398.88
2019-01-14T08:19:27.911Z,98403.72
2019-01-14T08:21:57.754Z,98399.53
2019-01-14T08:24:27.325Z,98399.39
2019-01-14T08:26:56.903Z,98411.95
2019-01-14T08:29:26.149Z,98415.13
2019-01-14T08:31:56.065Z,98419.86
2019-01-14T08:34:25.299Z,98414.09
2019-01-14T08:37:00.734Z,98406.91
2019-01-14T08:39:25.949Z,98396.09
2019-01-14T08:42:00.396Z,98397.02
2019-01-14T08:44:56.341Z,98393.00
2019-01-14T08:47:37.392Z,98388.13
2019-01-14T08:50:33.893Z,98393.20
2019-01-14T08:53:19.891Z,98392.53
2019-01-14T08:55:59.690Z,98389.19
2019-01-14T08:58:30.206Z,98400.38
2019-01-14T09:01:05.349Z,98409.77
2019-01-14T09:03:50.609Z,98404.44
2019-01-14T09:06:21.509Z,98408.37
2019-01-14T09:09:00.311Z,98409.27
2019-01-14T09:11:30.113Z,98407.87
2019-01-14T09:14:02.314Z,98422.55
2019-01-14T09:16:31.975Z,98432.67
2019-01-14T09:19:01.501Z,98426.22
2019-01-14T09:21:37.759Z,98434.59
2019-01-14T09:24:08.276Z,98446.70
2019-01-14T09:26:39.461Z,98454.40
2019-01-14T09:29:22.074Z,98448.53
2019-01-14T09:31:53.610Z,98457.28
2019-01-14T09:34:23.018Z,98449.00
2019-01-14T09:36:54.351Z,98444.63
2019-01-14T09:39:35.457Z,98442.81
2019-01-14T09:42:06.373Z,98439.28
2019-01-14T09:44:43.931Z,98439.70
2019-01-14T09:47:13.667Z,98448.27
2019-01-14T09:49:45.637Z,98454.25
2019-01-14T09:52:16.755Z,98450.70
2019-01-14T09:54:48.758Z,98456.86
2019-01-14T09:57:18.218Z,98449.25
2019-01-14T09:59:48.821Z,98443.77
2019-01-14T10:02:18.551Z,98443.91
2019-01-14T10:04:47.926Z,98438.69
2019-01-14T10:07:18.636Z,98446.55
2019-01-14T10:10:00.906Z,98446.75
2019-01-14T10:12:30.634Z,98451.21
2019-01-14T10:14:59.939Z,98435.92
2019-01-14T10:17:31.098Z,98441.94
2019-01-14T10:20:01.248Z,98443.07
2019-01-14T10:22:30.477Z,98442.45
2019-01-14T10:24:59.737Z,98445.00
2019-01-14T10:27:29.232Z,98449.31
2019-01-14T10:29:58.479Z,98456.26
2019-01-14T10:32:29.459Z,98460.98
2019-01-14T10:34:58.816Z,98465.96
2019-01-14T10:37:29.308Z,98463.64
2019-01-14T10:40:01.357Z,98476.11
2019-01-14T10:42:40.954Z,98481.39
2019-01-14T10:45:15.205Z,98487.25
2019-01-14T10:47:44.716Z,98490.20
2019-01-14T10:50:22.965Z,98500.58
2019-01-14T10:52:56.620Z,98504.38
2019-01-14T10:55:26.208Z,98506.84
2019-01-14T10:57:55.459Z,98503.94
2019-01-14T11:00:26.714Z,98514.44
2019-01-14T11:02:56.035Z,98516.73
2019-01-14T11:05:27.953Z,98520.67
2019-01-14T11:07:57.837Z,98527.09
2019-01-14T11:10:27.436Z,98524.56
2019-01-14T11:12:57.032Z,98525.92
2019-01-14T11:15:26.699Z,98523.26
2019-01-14T11:17:56.392Z,98532.48
2019-01-14T11:20:28.061Z,98537.73
2019-01-14T11:22:57.626Z,98538.75
2019-01-14T11:25:28.693Z,98539.01
2019-01-14T11:27:58.313Z,98529.83
2019-01-14T11:30:29.816Z,98523.09
2019-01-14T11:32:59.334Z,98524.58
2019-01-14T11:35:29.509Z,98519.81
2019-01-14T11:38:00.047Z,98522.21
2019-01-14T11:40:35.966Z,98519.49
2019-01-14T11:43:06.085Z,98513.81
2019-01-14T11:45:36.086Z,98526.12
2019-01-14T11:48:06.266Z,98524.38
2019-01-14T11:50:35.971Z,98532.73
2019-01-14T11:53:05.412Z,98524.77
2019-01-14T11:55:38.266Z,98528.98
2019-01-14T11:58:07.805Z,98534.11
2019-01-14T12:00:37.244Z,98527.55
2019-01-14T12:03:08.536Z,98535.34
2019-01-14T12:05:38.637Z,98542.28
2019-01-14T12:08:08.472Z,98557.09
2019-01-14T12:10:43.236Z,98556.78
2019-01-14T12:13:19.461Z,98558.15
2019-01-14T12:15:48.991Z,98548.05
2019-01-14T12:18:18.233Z,98547.98
2019-01-14T12:20:47.795Z,98547.52
2019-01-14T12:23:17.897Z,98544.83
2019-01-14T12:25:49.267Z,98532.95
2019-01-14T12:28:19.099Z,98539.34
2019-01-14T12:30:48.875Z,98548.75
2019-01-14T12:33:20.293Z,98539.48
2019-01-14T12:35:50.618Z,98535.20
2019-01-14T12:38:19.863Z,98539.22
2019-01-14T12:40:49.685Z,98557.84
2019-01-14T12:43:20.216Z,98553.44
2019-01-14T12:45:51.784Z,98546.24
2019-01-14T12:48:22.629Z,98555.80
2019-01-14T12:50:59.858Z,98565.44
2019-01-14T12:53:30.587Z,98561.20
2019-01-14T12:56:03.048Z,98572.48
2019-01-14T12:58:36.319Z,98567.02
2019-01-14T13:01:05.950Z,98577.43
2019-01-14T13:03:35.552Z,98560.58
2019-01-14T13:06:05.393Z,98564.59
2019-01-14T13:08:37.050Z,98567.31
2019-01-14T13:11:06.654Z,98587.59
2019-01-14T13:13:35.909Z,98585.98
2019-01-14T13:16:06.227Z,98577.81
2019-01-14T13:18:35.485Z,98580.83
2019-01-14T13:21:05.355Z,98587.39
2019-01-14T13:23:36.628Z,98591.11
2019-01-14T13:26:06.233Z,98592.36
2019-01-14T13:28:35.779Z,98582.48
2019-01-14T13:31:05.883Z,98592.02
2019-01-14T13:33:35.767Z,98601.58
2019-01-14T13:36:05.577Z,98609.98
2019-01-14T13:38:35.743Z,98618.02
2019-01-14T13:41:05.797Z,98609.06
2019-01-14T13:43:35.867Z,98619.43
2019-01-14T13:46:09.610Z,98631.07
2019-01-14T13:48:39.670Z,98631.22
2019-01-14T13:51:09.925Z,98631.98
2019-01-14T13:53:39.002Z,98641.95
2019-01-14T13:56:08.814Z,98633.47
2019-01-14T13:58:38.646Z,98642.80
2019-01-14T14:01:09.597Z,98645.28
2019-01-14T14:03:39.625Z,98652.23
2019-01-14T14:06:09.899Z,98663.80
2019-01-14T14:08:39.500Z,98667.13
2019-01-14T14:11:11.133Z,98645.30
2019-01-14T14:13:41.908Z,98648.44
2019-01-14T14:16:11.123Z,98652.45
2019-01-14T14:18:40.379Z,98656.59
2019-01-14T14:21:11.374Z,98662.70
2019-01-14T14:23:42.174Z,98672.75
2019-01-14T14:26:12.253Z,98682.11
2019-01-14T14:28:51.189Z,98678.55
2019-01-14T14:31:36.457Z,98674.55
2019-01-14T14:34:13.083Z,98675.87
2019-01-14T14:37:09.189Z,98679.73
2019-01-14T14:40:00.312Z,98688.08
2019-01-14T14:42:30.443Z,98684.28
2019-01-14T14:45:03.582Z,98684.84
2019-01-14T14:47:58.462Z,98698.98
2019-01-14T14:50:31.942Z,98693.84
2019-01-14T14:53:02.691Z,98707.83
2019-01-14T14:55:45.740Z,98703.45
2019-01-14T14:58:15.475Z,98689.84
2019-01-14T15:00:45.923Z,98689.99
2019-01-14T15:03:15.170Z,98701.34
2019-01-14T15:05:44.417Z,98694.64
2019-01-14T15:08:14.663Z,98713.63
2019-01-14T15:11:07.606Z,98717.23
2019-01-14T15:13:39.442Z,98714.92
2019-01-14T15:16:16.942Z,98723.81
2019-01-14T15:19:03.135Z,98734.96
2019-01-14T15:21:46.562Z,98735.78
2019-01-14T15:24:16.847Z,98747.86
2019-01-14T15:26:46.187Z,98757.83
2019-01-14T15:29:16.350Z,98770.91
2019-01-14T15:31:46.686Z,98772.10
2019-01-14T15:34:16.785Z,98770.75
2019-01-14T15:36:48.980Z,98776.64
2019-01-14T15:39:18.433Z,98792.53
2019-01-14T15:41:53.477Z,98798.64
2019-01-14T15:44:26.749Z,98804.34
2019-01-14T15:47:06.461Z,98808.58
2019-01-14T15:49:38.878Z,98818.92
2019-01-14T15:52:09.946Z,98820.88
2019-01-14T15:54:41.019Z,98832.73
2019-01-14T15:57:12.576Z,98832.81
2019-01-14T15:59:43.042Z,98851.16
2019-01-14T16:02:12.844Z,98863.41
2019-01-14T16:04:42.626Z,98885.08
2019-01-14T16:07:11.883Z,98890.22
2019-01-14T16:09:41.947Z,98915.88
2019-01-14T16:12:11.192Z,98932.70
2019-01-14T16:14:40.582Z,98945.58
2019-01-14T16:17:10.852Z,98948.27
2019-01-14T16:19:53.826Z,98947.13
2019-01-14T16:22:29.652Z,98952.97
2019-01-14T16:25:00.542Z,98961.05
2019-01-14T16:27:41.604Z,98965.89
2019-01-14T16:30:16.929Z,98972.70
2019-01-14T16:32:48.941Z,98979.37
2019-01-14T16:35:23.401Z,98973.87
2019-01-14T16:37:58.365Z,98980.34
2019-01-14T16:40:31.471Z,98985.27
2019-01-14T16:43:05.946Z,99000.18
2019-01-14T16:45:40.755Z,98998.53
2019-01-14T16:48:12.602Z,99000.55
2019-01-14T16:50:47.369Z,99006.23
2019-01-14T16:53:33.550Z,99014.18
2019-01-14T16:56:14.009Z,99009.31
2019-01-14T16:58:46.045Z,99010.44
2019-01-14T17:01:22.914Z,99029.34
2019-01-14T17:03:57.363Z,99028.42
2019-01-14T17:06:33.650Z,99015.39
2019-01-14T17:09:14.492Z,99031.70
2019-01-14T17:12:06.971Z,99034.19
2019-01-14T17:14:45.635Z,99032.09
2019-01-14T17:17:25.552Z,99019.80
2019-01-14T17:20:13.033Z,99023.52
2019-01-14T17:22:42.903Z,99032.30
2019-01-14T17:25:15.053Z,99037.91
2019-01-14T17:27:45.304Z,99045.13
2019-01-14T17:30:17.044Z,99039.92
2019-01-14T17:32:48.535Z,99040.24
2019-01-14T17:35:30.493Z,99036.97
2019-01-14T17:38:02.544Z,99038.98
2019-01-14T17:40:34.436Z,99038.85
2019-01-14T17:43:21.536Z,99033.94
2019-01-14T17:45:58.183Z,99051.88
2019-01-14T17:48:28.436Z,99053.19
2019-01-14T17:50:59.105Z,99058.28
2019-01-14T17:53:29.166Z,99053.12
2019-01-14T17:55:59.160Z,99062.05
2019-01-14T17:58:28.423Z,99064.84
2019-01-14T18:00:57.688Z,99071.64
2019-01-14T18:03:26.951Z,99073.23
2019-01-14T18:05:56.190Z,99076.13
2019-01-14T18:08:26.449Z,99079.88
2019-01-14T18:11:01.634Z,99072.81
2019-01-14T18:13:29.191Z,99071.84
2019-01-14T18:15:58.554Z,99067.02
2019-01-14T18:18:29.278Z,99076.56
2019-01-14T18:21:05.415Z,99073.55
2019-01-14T18:23:33.607Z,99080.03
2019-01-14T18:26:03.701Z,99083.38
2019-01-14T18:28:34.282Z,99084.80
2019-01-14T18:31:32.532Z,99084.66
2019-01-14T18:34:43.528Z,99089.92
2019-01-14T18:37:25.465Z,99087.02
2019-01-14T18:39:58.077Z,99086.96
2019-01-14T18:42:30.633Z,99093.09
2019-01-14T18:45:00.060Z,99100.34
2019-01-14T18:47:44.940Z,99104.90
2019-01-14T18:50:19.707Z,99109.20
2019-01-14T18:52:49.298Z,99119.33
2019-01-14T18:55:19.560Z,99118.53
2019-01-14T18:57:50.965Z,99124.39
2019-01-14T19:00:22.979Z,99131.14
2019-01-14T19:02:55.738Z,99130.85
2019-01-14T19:05:30.375Z,99132.84
2019-01-14T19:08:02.242Z,99136.77
2019-01-14T19:10:32.692Z,99149.61
2019-01-14T19:13:02.255Z,99146.48
2019-01-14T19:15:32.372Z,99149.61
2019-01-14T19:18:05.724Z,99144.89
2019-01-14T19:20:38.349Z,99151.77
2019-01-14T19:23:23.894Z,99159.08
2019-01-14T19:25:55.734Z,99159.08
2019-01-14T19:28:27.549Z,99161.31
2019-01-14T19:30:59.324Z,99167.63
2019-01-14T19:33:31.114Z,99168.02
2019-01-14T19:36:01.554Z,99173.75
2019-01-14T19:38:33.753Z,99177.67
2019-01-14T19:41:08.609Z,99173.19
2019-01-14T19:43:41.516Z,99174.60
2019-01-14T19:46:12.351Z,99175.05
2019-01-14T19:48:42.101Z,99179.22
2019-01-14T19:51:13.368Z,99177.38
2019-01-14T19:53:46.917Z,99174.27
2019-01-14T19:56:21.382Z,99177.38
2019-01-14T19:58:51.002Z,99196.03
2019-01-14T20:01:32.373Z,99198.15
2019-01-14T20:04:06.120Z,99197.67
2019-01-14T20:06:36.012Z,99208.70
2019-01-14T20:09:09.139Z,99208.98
2019-01-14T20:11:41.407Z,99213.08
2019-01-14T20:14:15.064Z,99208.46
2019-01-14T20:16:47.828Z,99211.25
2019-01-14T20:19:23.017Z,99215.40
2019-01-14T20:21:55.826Z,99218.91
2019-01-14T20:24:26.439Z,99226.92
2019-01-14T20:26:58.187Z,99230.90
2019-01-14T20:29:27.806Z,99231.94
2019-01-14T20:31:59.110Z,99236.55
2019-01-14T20:34:40.421Z,99237.91
2019-01-14T20:37:18.376Z,99239.17
2019-01-14T20:39:53.575Z,99233.48
2019-01-14T20:42:24.237Z,99242.29
2019-01-14T20:44:56.698Z,99236.95
2019-01-14T20:47:27.330Z,99243.24
2019-01-14T20:50:01.039Z,99244.95
2019-01-14T20:52:30.597Z,99250.63
2019-01-14T20:55:03.588Z,99250.09
2019-01-14T20:57:36.456Z,99252.16
2019-01-14T21:00:15.710Z,99246.64
2019-01-14T21:02:46.316Z,99258.00
2019-01-14T21:05:22.944Z,99267.34
2019-01-14T21:07:52.791Z,99265.94
2019-01-14T21:10:24.352Z,99274.98
2019-01-14T21:12:54.114Z,99276.23
2019-01-14T21:15:28.430Z,99269.72
2019-01-14T21:18:06.181Z,99273.23
2019-01-14T21:20:37.381Z,99268.50
2019-01-14T21:23:08.577Z,99268.41
2019-01-14T21:25:38.579Z,99270.72
2019-01-14T21:28:07.809Z,99269.41
2019-01-14T21:30:37.066Z,99264.19
2019-01-14T21:33:08.170Z,99257.09
2019-01-14T21:35:38.049Z,99250.95
2019-01-14T21:38:08.718Z,99248.69
2019-01-14T21:40:38.264Z,99250.90
2019-01-14T21:43:07.766Z,99253.61
2019-01-14T21:45:38.502Z,99250.11
2019-01-14T21:48:07.993Z,99261.00
2019-01-14T21:50:39.192Z,99261.02
2019-01-14T21:53:08.826Z,99259.10
2019-01-14T21:55:39.131Z,99263.78
2019-01-14T21:58:08.378Z,99266.70
2019-01-14T22:00:38.053Z,99265.48
2019-01-14T22:03:07.592Z,99264.69
2019-01-14T22:05:37.138Z,99265.09
2019-01-14T22:08:09.598Z,99270.72
2019-01-14T22:10:42.040Z,99275.99
2019-01-14T22:13:12.469Z,99276.55
2019-01-14T22:15:41.953Z,99282.52
2019-01-14T22:18:12.880Z,99290.01
2019-01-14T22:20:46.218Z,99282.63
2019-01-14T22:23:16.843Z,99292.17
2019-01-14T22:25:47.415Z,99294.64
2019-01-14T22:28:18.112Z,99299.41
2019-01-14T22:30:47.653Z,99303.73
2019-01-14T22:33:18.111Z,99317.66
2019-01-14T22:35:48.169Z,99303.69
2019-01-14T22:38:22.399Z,99311.42
2019-01-14T22:40:51.948Z,99314.44
2019-01-14T22:43:22.062Z,99321.22
2019-01-14T22:45:55.340Z,99325.64
2019-01-14T22:48:26.050Z,99326.53
2019-01-14T22:50:57.064Z,99330.53
2019-01-14T22:53:27.386Z,99330.44
2019-01-14T22:55:56.439Z,99339.03
2019-01-14T22:58:28.217Z,99339.39
2019-01-14T23:01:37.120Z,99345.43
2019-01-14T23:04:07.172Z,99346.88
2019-01-14T23:06:37.792Z,99352.56
2019-01-14T23:09:10.724Z,99349.50
2019-01-14T23:11:40.835Z,99352.11
2019-01-14T23:14:11.926Z,99346.03
2019-01-14T23:16:41.266Z,99351.07
2019-01-14T23:19:13.511Z,99345.08
2019-01-14T23:21:43.018Z,99354.83
2019-01-14T23:24:14.797Z,99356.25
2019-01-14T23:26:44.042Z,99354.92
2019-01-14T23:29:13.614Z,99359.97
2019-01-14T23:31:46.069Z,99366.05
2019-01-14T23:34:17.000Z,99372.53
2019-01-14T23:36:48.071Z,99373.03
2019-01-14T23:39:17.629Z,99370.02
2019-01-14T23:41:47.146Z,99367.71
2019-01-14T23:44:18.508Z,99366.64
2019-01-14T23:46:48.511Z,99370.47
2019-01-14T23:49:19.841Z,99369.16
2019-01-14T23:51:49.335Z,99374.14
2019-01-14T23:54:19.145Z,99374.09
2019-01-14T23:56:48.792Z,99367.76
2019-01-14T23:59:18.372Z,99359.72
